createdAt,value
2023-01-30T00:00:44.570Z,66.41
2023-01-30T00:02:47.110Z,66.32
2023-01-30T00:04:49.720Z,65.96
2023-01-30T00:06:52.290Z,66.55
2023-01-30T00:08:56.300Z,66.54
2023-01-30T00:10:58.862Z,66.33
2023-01-30T00:13:01.441Z,65.92
2023-01-30T00:15:04.077Z,66.29
2023-01-30T00:17:06.656Z,66.00
2023-01-30T00:19:09.420Z,65.05
2023-01-30T00:21:14.389Z,65.00
2023-01-30T00:23:16.902Z,65.23
2023-01-30T00:25:20.892Z,65.12
2023-01-30T00:27:23.588Z,65.58
2023-01-30T00:29:26.132Z,65.41
2023-01-30T00:31:28.779Z,64.82
2023-01-30T00:33:31.438Z,65.72
2023-01-30T00:35:34.159Z,65.41
2023-01-30T00:37:39.607Z,65.51
2023-01-30T00:39:42.154Z,65.32
2023-01-30T00:42:03.505Z,65.89
2023-01-30T00:44:24.548Z,65.95
2023-01-30T00:47:03.886Z,65.93
2023-01-30T00:49:06.584Z,65.09
2023-01-30T00:51:09.268Z,65.44
2023-01-30T00:53:13.090Z,65.21
2023-01-30T00:55:16.756Z,65.44
2023-01-30T00:57:20.836Z,65.49
2023-01-30T00:59:23.396Z,65.48
2023-01-30T01:01:25.968Z,64.76
2023-01-30T01:03:28.526Z,64.97
2023-01-30T01:05:31.321Z,65.52
2023-01-30T01:07:33.879Z,65.22
2023-01-30T01:09:36.495Z,64.92
2023-01-30T01:11:39.158Z,64.58
2023-01-30T01:13:43.107Z,64.83
2023-01-30T01:15:48.385Z,65.05
2023-01-30T01:17:51.357Z,64.49
2023-01-30T01:19:53.965Z,65.48
2023-01-30T01:21:56.561Z,64.42
2023-01-30T01:24:01.158Z,64.82
2023-01-30T01:26:03.908Z,65.03
2023-01-30T01:28:06.460Z,64.93
2023-01-30T01:30:12.224Z,64.80
2023-01-30T01:32:14.918Z,65.44
2023-01-30T01:34:17.496Z,64.56
2023-01-30T01:36:49.711Z,64.73
2023-01-30T01:38:43.240Z,64.96
2023-01-30T01:41:06.136Z,65.26
2023-01-30T01:43:20.784Z,64.69
2023-01-30T01:45:25.964Z,64.39
2023-01-30T01:47:29.116Z,65.24
2023-01-30T01:49:34.746Z,64.78
2023-01-30T01:51:41.302Z,64.99
2023-01-30T01:53:51.987Z,65.35
2023-01-30T01:55:57.858Z,64.79
2023-01-30T01:58:05.164Z,65.38
2023-01-30T02:00:12.061Z,64.81
2023-01-30T02:02:16.703Z,65.06
2023-01-30T02:04:39.801Z,65.01
2023-01-30T02:06:43.852Z,65.04
2023-01-30T02:08:51.254Z,65.34
2023-01-30T02:10:59.848Z,65.50
2023-01-30T02:13:02.489Z,65.15
2023-01-30T02:15:06.128Z,65.30
2023-01-30T02:17:08.691Z,65.40
2023-01-30T02:19:25.067Z,65.39
2023-01-30T02:22:08.956Z,65.84
2023-01-30T02:24:27.414Z,66.19
2023-01-30T02:27:03.886Z,64.48
2023-01-30T02:29:34.717Z,65.02
2023-01-30T02:31:45.239Z,64.81
2023-01-30T02:33:58.248Z,64.63
2023-01-30T02:36:11.952Z,65.21
2023-01-30T02:38:31.845Z,65.38
2023-01-30T02:40:47.293Z,65.25
2023-01-30T02:42:55.431Z,65.61
2023-01-30T02:45:06.383Z,64.95
2023-01-30T02:47:14.640Z,65.23
2023-01-30T02:49:23.445Z,64.95
2023-01-30T02:51:30.908Z,65.09
2023-01-30T02:53:33.936Z,65.00
2023-01-30T02:55:36.679Z,65.67
2023-01-30T02:57:39.240Z,65.59
2023-01-30T02:59:45.026Z,65.61
2023-01-30T03:02:09.901Z,65.20
2023-01-30T03:04:31.710Z,65.71
2023-01-30T03:06:51.484Z,65.99
2023-01-30T03:09:07.220Z,66.04
2023-01-30T03:11:11.613Z,65.31
2023-01-30T03:13:22.652Z,65.68
2023-01-30T03:15:30.998Z,66.30
2023-01-30T03:17:35.266Z,65.33
2023-01-30T03:19:39.440Z,65.10
2023-01-30T03:21:44.474Z,64.24
2023-01-30T03:23:47.708Z,64.94
2023-01-30T03:25:50.638Z,65.21
2023-01-30T03:27:55.396Z,65.26
2023-01-30T03:29:57.965Z,65.14
2023-01-30T03:32:00.566Z,65.82
2023-01-30T03:34:03.156Z,64.78
2023-01-30T03:36:07.693Z,64.93
2023-01-30T03:38:10.562Z,64.64
2023-01-30T03:40:14.373Z,64.23
2023-01-30T03:42:17.047Z,64.93
2023-01-30T03:44:19.736Z,64.56
2023-01-30T03:46:22.352Z,63.54
2023-01-30T03:48:24.921Z,64.18
2023-01-30T03:50:27.523Z,63.92
2023-01-30T03:52:31.490Z,64.44
2023-01-30T03:54:34.317Z,64.15
2023-01-30T03:56:36.943Z,64.25
2023-01-30T03:58:39.745Z,65.19
2023-01-30T04:00:42.572Z,65.09
2023-01-30T04:02:45.169Z,65.93
2023-01-30T04:04:50.612Z,65.21
2023-01-30T04:06:53.244Z,65.37
2023-01-30T04:08:57.222Z,65.92
2023-01-30T04:10:59.873Z,66.10
2023-01-30T04:13:02.577Z,65.46
2023-01-30T04:15:05.877Z,65.86
2023-01-30T04:17:08.395Z,65.41
2023-01-30T04:19:10.979Z,65.04
2023-01-30T04:21:14.102Z,64.97
2023-01-30T04:23:16.698Z,64.99
2023-01-30T04:25:21.204Z,64.58
2023-01-30T04:27:23.968Z,65.42
2023-01-30T04:29:26.506Z,66.53
2023-01-30T04:31:29.121Z,65.76
2023-01-30T04:33:35.179Z,66.15
2023-01-30T04:35:37.726Z,65.35
2023-01-30T04:37:40.324Z,65.80
2023-01-30T04:39:42.888Z,65.36
2023-01-30T04:41:47.989Z,65.20
2023-01-30T04:43:50.531Z,64.99
2023-01-30T04:45:53.747Z,65.51
2023-01-30T04:47:56.305Z,65.47
2023-01-30T04:49:58.865Z,65.35
2023-01-30T04:52:01.548Z,65.34
2023-01-30T04:54:04.311Z,65.18
2023-01-30T04:56:08.248Z,64.93
2023-01-30T04:58:12.236Z,65.26
2023-01-30T05:00:15.355Z,65.82
2023-01-30T05:02:17.979Z,65.32
2023-01-30T05:04:20.516Z,65.12
2023-01-30T05:06:24.194Z,64.76
2023-01-30T05:08:26.759Z,64.64
2023-01-30T05:10:29.688Z,64.35
2023-01-30T05:12:32.260Z,65.00
2023-01-30T05:14:36.183Z,65.11
2023-01-30T05:16:38.735Z,65.20
2023-01-30T05:18:41.700Z,65.11
2023-01-30T05:20:44.271Z,65.34
2023-01-30T05:22:46.827Z,64.89
2023-01-30T05:24:49.373Z,64.95
2023-01-30T05:26:51.918Z,64.14
2023-01-30T05:28:55.896Z,64.20
2023-01-30T05:31:03.433Z,64.36
2023-01-30T05:33:06.061Z,63.96
2023-01-30T05:35:09.483Z,64.12
2023-01-30T05:37:13.288Z,64.92
2023-01-30T05:39:16.081Z,64.65
2023-01-30T05:41:19.170Z,64.19
2023-01-30T05:43:21.697Z,64.28
2023-01-30T05:45:24.254Z,64.16
2023-01-30T05:47:28.169Z,64.35
2023-01-30T05:49:30.858Z,64.84
2023-01-30T05:51:33.537Z,63.91
2023-01-30T05:53:37.080Z,64.21
2023-01-30T05:55:39.656Z,63.57
2023-01-30T05:57:42.246Z,63.78
2023-01-30T05:59:44.788Z,64.06
2023-01-30T06:01:47.398Z,63.93
2023-01-30T06:03:51.497Z,62.32
2023-01-30T06:05:54.128Z,62.79
2023-01-30T06:07:56.699Z,61.56
2023-01-30T06:09:59.295Z,61.62
2023-01-30T06:12:01.813Z,62.11
2023-01-30T06:14:04.418Z,61.72
2023-01-30T06:16:08.411Z,61.81
2023-01-30T06:18:11.098Z,62.53
2023-01-30T06:20:15.278Z,61.46
2023-01-30T06:22:17.810Z,61.97
2023-01-30T06:24:20.408Z,61.36
2023-01-30T06:26:23.006Z,61.34
2023-01-30T06:28:26.940Z,61.24
2023-01-30T06:30:29.506Z,62.01
2023-01-30T06:32:32.065Z,60.97
2023-01-30T06:34:34.659Z,61.45
2023-01-30T06:36:38.577Z,61.70
2023-01-30T06:38:41.167Z,61.61
2023-01-30T06:40:46.010Z,60.49
2023-01-30T06:42:49.541Z,60.82
2023-01-30T06:44:52.120Z,60.97
2023-01-30T06:46:57.639Z,60.66
2023-01-30T06:49:00.196Z,61.47
2023-01-30T06:51:02.807Z,61.61
2023-01-30T06:53:08.615Z,61.84
2023-01-30T06:55:12.079Z,61.90
2023-01-30T06:57:14.631Z,61.85
2023-01-30T06:59:17.230Z,61.64
2023-01-30T07:01:21.204Z,61.19
2023-01-30T07:03:23.870Z,61.41
2023-01-30T07:05:26.467Z,61.30
2023-01-30T07:07:29.206Z,60.25
2023-01-30T07:09:33.143Z,60.34
2023-01-30T07:11:35.702Z,59.40
2023-01-30T07:13:38.358Z,59.23
2023-01-30T07:15:41.004Z,58.83
2023-01-30T07:17:43.943Z,59.76
2023-01-30T07:19:46.799Z,59.85
2023-01-30T07:21:49.351Z,60.07
2023-01-30T07:23:51.952Z,59.12
2023-01-30T07:25:55.869Z,59.40
2023-01-30T07:28:01.867Z,59.98
2023-01-30T07:30:04.887Z,60.17
2023-01-30T07:32:09.014Z,60.47
2023-01-30T07:34:11.532Z,60.41
2023-01-30T07:36:14.147Z,59.86
2023-01-30T07:38:16.673Z,59.81
2023-01-30T07:40:20.403Z,60.29
2023-01-30T07:42:24.330Z,59.57
2023-01-30T07:44:26.897Z,60.67
2023-01-30T07:46:34.834Z,60.42
2023-01-30T07:48:37.463Z,59.82
2023-01-30T07:50:40.443Z,59.65
2023-01-30T07:52:42.980Z,60.53
2023-01-30T07:54:45.512Z,59.82
2023-01-30T07:56:48.083Z,60.25
2023-01-30T07:58:52.322Z,60.01
2023-01-30T08:00:56.625Z,59.12
2023-01-30T08:02:59.639Z,59.32
2023-01-30T08:05:03.980Z,58.68
2023-01-30T08:07:07.782Z,59.40
2023-01-30T08:09:10.473Z,60.01
2023-01-30T08:11:13.329Z,59.75
2023-01-30T08:13:16.110Z,59.86
2023-01-30T08:15:21.961Z,59.34
2023-01-30T08:17:25.419Z,60.25
2023-01-30T08:19:27.952Z,59.50
2023-01-30T08:21:30.473Z,60.28
2023-01-30T08:23:33.639Z,60.40
2023-01-30T08:25:36.770Z,59.49
2023-01-30T08:27:39.308Z,60.84
2023-01-30T08:29:41.911Z,60.34
2023-01-30T08:31:45.879Z,60.85
2023-01-30T08:33:49.137Z,60.48
2023-01-30T08:35:52.603Z,61.00
2023-01-30T08:37:55.412Z,61.49
2023-01-30T08:39:57.954Z,61.46
2023-01-30T08:42:00.494Z,61.24
2023-01-30T08:44:03.122Z,61.61
2023-01-30T08:46:06.171Z,62.31
2023-01-30T08:48:11.243Z,61.89
2023-01-30T08:50:13.806Z,62.70
2023-01-30T08:52:16.345Z,62.27
2023-01-30T08:54:18.897Z,62.61
2023-01-30T08:56:21.517Z,62.92
2023-01-30T08:58:24.104Z,63.33
2023-01-30T09:00:28.234Z,63.74
2023-01-30T09:02:30.903Z,62.35
2023-01-30T09:04:35.178Z,62.55
2023-01-30T09:06:37.732Z,62.65
2023-01-30T09:08:40.299Z,63.80
2023-01-30T09:10:42.886Z,62.94
2023-01-30T09:12:46.485Z,63.43
2023-01-30T09:14:49.036Z,63.53
2023-01-30T09:16:55.869Z,62.95
2023-01-30T09:18:58.486Z,63.56
2023-01-30T09:21:06.287Z,63.10
2023-01-30T09:23:08.977Z,63.78
2023-01-30T09:25:11.541Z,63.91
2023-01-30T09:27:14.115Z,63.23
2023-01-30T09:29:16.694Z,63.56
2023-01-30T09:31:19.417Z,63.68
2023-01-30T09:33:22.057Z,63.20
2023-01-30T09:35:24.595Z,64.31
2023-01-30T09:37:29.010Z,64.22
2023-01-30T09:39:31.571Z,63.72
2023-01-30T09:41:53.404Z,63.91
2023-01-30T09:44:16.232Z,62.96
2023-01-30T09:46:31.051Z,63.51
2023-01-30T09:48:42.471Z,63.48
2023-01-30T09:50:57.876Z,63.42
2023-01-30T09:53:10.306Z,63.61
2023-01-30T09:55:19.343Z,62.89
2023-01-30T09:57:24.297Z,63.21
2023-01-30T09:59:36.059Z,63.22
2023-01-30T10:01:41.863Z,62.58
2023-01-30T10:03:57.266Z,62.56
2023-01-30T10:06:06.032Z,62.46
2023-01-30T10:08:24.575Z,63.41
2023-01-30T10:10:46.259Z,62.81
2023-01-30T10:12:59.416Z,63.69
2023-01-30T10:15:28.754Z,63.64
2023-01-30T10:17:38.379Z,63.17
2023-01-30T10:19:55.418Z,63.57
2023-01-30T10:22:03.351Z,63.42
2023-01-30T10:24:24.108Z,63.30
2023-01-30T10:26:29.519Z,63.74
2023-01-30T10:28:35.946Z,63.75
2023-01-30T10:30:42.544Z,63.98
2023-01-30T10:32:49.813Z,64.74
2023-01-30T10:34:56.859Z,64.16
2023-01-30T10:37:08.479Z,64.60
2023-01-30T10:39:23.580Z,64.47
2023-01-30T10:41:32.023Z,64.73
2023-01-30T10:43:41.529Z,64.64
2023-01-30T10:45:52.383Z,65.12
2023-01-30T10:48:05.794Z,64.70
2023-01-30T10:50:16.651Z,65.14
2023-01-30T10:52:28.469Z,65.36
2023-01-30T10:54:38.702Z,64.91
2023-01-30T10:56:48.368Z,65.40
2023-01-30T10:58:59.671Z,65.66
2023-01-30T11:01:06.840Z,65.63
2023-01-30T11:03:27.414Z,65.49
2023-01-30T11:05:39.525Z,65.50
2023-01-30T11:07:44.910Z,66.00
2023-01-30T11:09:50.007Z,65.40
2023-01-30T11:11:54.377Z,65.31
2023-01-30T11:14:07.188Z,66.08
2023-01-30T11:16:13.219Z,65.78
2023-01-30T11:20:41.523Z,66.08
2023-01-30T11:22:48.923Z,66.25
2023-01-30T11:25:02.120Z,66.39
2023-01-30T11:27:12.589Z,66.20
2023-01-30T11:29:27.626Z,66.32
2023-01-30T11:31:40.932Z,66.58
2023-01-30T11:33:44.316Z,65.96
2023-01-30T11:35:54.851Z,66.69
2023-01-30T11:38:12.592Z,66.11
2023-01-30T11:40:26.422Z,66.53
2023-01-30T11:42:32.527Z,67.04
2023-01-30T11:44:37.742Z,67.28
2023-01-30T11:46:43.903Z,67.29
2023-01-30T11:49:02.971Z,67.33
2023-01-30T11:51:18.023Z,67.61
2023-01-30T11:53:29.196Z,66.77
2023-01-30T11:55:36.424Z,67.42
2023-01-30T11:57:44.317Z,67.75
2023-01-30T11:59:50.848Z,67.44
2023-01-30T12:02:02.661Z,67.46
2023-01-30T12:04:10.085Z,67.29
2023-01-30T12:06:13.012Z,67.23
2023-01-30T12:08:40.700Z,67.41
2023-01-30T12:10:48.873Z,67.57
2023-01-30T12:12:53.441Z,67.65
2023-01-30T12:15:05.849Z,67.29
2023-01-30T12:17:15.714Z,67.22
2023-01-30T12:19:30.155Z,67.74
2023-01-30T12:21:41.520Z,68.07
2023-01-30T12:23:47.374Z,68.39
2023-01-30T12:25:59.992Z,68.36
2023-01-30T12:28:08.967Z,68.77
2023-01-30T12:30:23.523Z,68.98
2023-01-30T12:32:28.544Z,68.98
2023-01-30T12:34:31.805Z,69.01
2023-01-30T12:36:46.342Z,68.93
2023-01-30T12:39:05.900Z,68.46
2023-01-30T12:41:25.200Z,68.49
2023-01-30T12:43:50.696Z,68.79
2023-01-30T12:46:05.511Z,69.33
2023-01-30T12:48:22.954Z,69.66
2023-01-30T12:50:33.198Z,69.15
2023-01-30T12:53:23.019Z,70.08
2023-01-30T12:55:37.480Z,70.47
2023-01-30T12:57:47.210Z,69.99
2023-01-30T13:00:03.484Z,70.47
2023-01-30T13:02:26.509Z,70.95
2023-01-30T13:04:56.329Z,70.92
2023-01-30T13:07:16.343Z,70.44
2023-01-30T13:09:37.776Z,70.32
2023-01-30T13:11:49.141Z,70.67
2023-01-30T13:13:57.744Z,70.46
2023-01-30T13:16:07.770Z,70.61
2023-01-30T13:18:16.550Z,70.80
2023-01-30T13:20:32.032Z,70.66
2023-01-30T13:22:42.784Z,70.33
2023-01-30T13:24:55.831Z,70.18
2023-01-30T13:27:02.026Z,70.65
2023-01-30T13:29:14.204Z,70.49
2023-01-30T13:31:21.325Z,70.65
2023-01-30T13:33:28.109Z,70.26
2023-01-30T13:35:34.468Z,70.51
2023-01-30T13:37:40.444Z,69.97
2023-01-30T13:39:48.508Z,70.28
2023-01-30T13:41:57.465Z,70.12
2023-01-30T13:44:01.644Z,70.38
2023-01-30T13:46:08.966Z,70.17
2023-01-30T13:48:25.576Z,70.33
2023-01-30T13:50:48.277Z,70.47
2023-01-30T13:52:57.993Z,70.76
2023-01-30T13:55:09.998Z,70.47
2023-01-30T13:57:25.466Z,70.49
2023-01-30T13:59:45.200Z,70.59
2023-01-30T14:02:17.493Z,70.65
2023-01-30T14:04:45.136Z,71.00
2023-01-30T14:06:47.750Z,70.98
2023-01-30T14:08:53.458Z,71.46
2023-01-30T14:10:58.335Z,72.04
2023-01-30T14:13:07.017Z,71.33
2023-01-30T14:15:28.824Z,72.39
2023-01-30T14:17:33.021Z,72.89
2023-01-30T14:19:44.633Z,71.73
2023-01-30T14:21:55.758Z,71.64
2023-01-30T14:24:01.583Z,71.62
2023-01-30T14:26:04.828Z,71.10
2023-01-30T14:28:52.161Z,71.27
2023-01-30T14:30:56.289Z,70.20
2023-01-30T14:33:01.998Z,70.31
2023-01-30T14:35:24.815Z,70.92
2023-01-30T14:37:46.670Z,71.15
2023-01-30T14:39:54.005Z,71.50
2023-01-30T14:42:25.988Z,71.89
2023-01-30T14:45:02.965Z,71.08
2023-01-30T14:47:42.231Z,71.08
2023-01-30T14:49:44.962Z,71.20
2023-01-30T14:51:48.818Z,71.29
2023-01-30T14:53:55.201Z,72.58
2023-01-30T14:56:01.989Z,71.22
2023-01-30T14:58:05.187Z,71.80
2023-01-30T15:00:19.425Z,72.01
2023-01-30T15:02:27.398Z,71.76
2023-01-30T15:04:32.901Z,71.87
2023-01-30T15:06:38.224Z,72.08
2023-01-30T15:08:44.082Z,72.57
2023-01-30T15:10:59.954Z,73.10
2023-01-30T15:13:32.238Z,72.91
2023-01-30T15:15:46.189Z,72.35
2023-01-30T15:18:08.369Z,72.60
2023-01-30T15:20:21.758Z,72.46
2023-01-30T15:22:37.467Z,72.21
2023-01-30T15:25:22.910Z,71.31
2023-01-30T15:27:31.970Z,71.77
2023-01-30T15:30:12.503Z,72.07
2023-01-30T15:32:19.087Z,71.56
2023-01-30T15:34:22.443Z,71.93
2023-01-30T15:36:28.698Z,71.76
2023-01-30T15:38:34.712Z,71.93
2023-01-30T15:40:37.911Z,72.28
2023-01-30T15:42:40.641Z,71.79
2023-01-30T15:44:58.517Z,72.50
2023-01-30T15:47:16.440Z,72.57
2023-01-30T15:49:53.270Z,71.90
2023-01-30T15:52:00.990Z,73.14
2023-01-30T15:54:11.159Z,72.55
2023-01-30T15:56:21.598Z,72.73
2023-01-30T15:58:25.655Z,73.41
2023-01-30T16:00:31.610Z,73.11
2023-01-30T16:02:36.973Z,72.60
2023-01-30T16:04:39.637Z,71.81
2023-01-30T16:06:42.248Z,71.78
2023-01-30T16:08:56.201Z,71.97
2023-01-30T16:11:03.043Z,72.05
2023-01-30T16:13:05.804Z,72.01
2023-01-30T16:15:19.576Z,71.72
2023-01-30T16:17:22.966Z,72.93
2023-01-30T16:19:29.476Z,72.43
2023-01-30T16:21:35.311Z,72.19
2023-01-30T16:23:41.430Z,72.15
2023-01-30T16:25:48.311Z,72.23
2023-01-30T16:27:53.698Z,72.72
2023-01-30T16:29:58.772Z,73.24
2023-01-30T16:32:01.857Z,73.29
2023-01-30T16:34:05.403Z,73.21
2023-01-30T16:36:34.004Z,72.47
2023-01-30T16:38:39.397Z,72.21
2023-01-30T16:40:47.178Z,71.79
2023-01-30T16:43:01.943Z,71.93
2023-01-30T16:46:06.188Z,72.42
2023-01-30T16:48:25.466Z,72.18
2023-01-30T16:50:28.150Z,72.05
2023-01-30T16:52:37.006Z,72.19
2023-01-30T16:54:46.134Z,72.88
2023-01-30T16:56:52.461Z,72.13
2023-01-30T16:58:59.002Z,72.17
2023-01-30T17:01:03.437Z,72.32
2023-01-30T17:03:08.321Z,72.63
2023-01-30T17:05:19.520Z,73.02
2023-01-30T17:07:35.999Z,73.03
2023-01-30T17:09:42.923Z,72.51
2023-01-30T17:11:45.509Z,72.59
2023-01-30T17:13:48.271Z,72.93
2023-01-30T17:15:52.236Z,73.63
2023-01-30T17:17:54.804Z,73.95
2023-01-30T17:19:59.530Z,73.92
2023-01-30T17:22:04.109Z,73.08
2023-01-30T17:24:07.788Z,73.25
2023-01-30T17:26:12.955Z,73.26
2023-01-30T17:28:21.033Z,72.81
2023-01-30T17:30:23.690Z,73.50
2023-01-30T17:32:27.804Z,73.00
2023-01-30T17:34:30.324Z,73.34
2023-01-30T17:36:32.930Z,72.84
2023-01-30T17:38:35.522Z,73.29
2023-01-30T17:40:39.242Z,73.07
2023-01-30T17:42:41.816Z,73.12
2023-01-30T17:44:44.486Z,73.49
2023-01-30T17:46:48.918Z,72.65
2023-01-30T17:48:52.859Z,73.49
2023-01-30T17:50:55.430Z,73.11
2023-01-30T17:52:57.986Z,73.47
2023-01-30T17:55:00.583Z,72.23
2023-01-30T17:57:05.118Z,72.44
2023-01-30T17:59:13.582Z,72.64
2023-01-30T18:01:17.870Z,72.54
2023-01-30T18:03:20.564Z,71.96
2023-01-30T18:05:24.660Z,72.62
2023-01-30T18:07:30.289Z,72.65
2023-01-30T18:09:33.500Z,72.39
2023-01-30T18:11:36.178Z,72.74
2023-01-30T18:13:40.460Z,73.34
2023-01-30T18:15:43.086Z,73.13
2023-01-30T18:17:47.939Z,72.09
2023-01-30T18:19:50.543Z,73.08
2023-01-30T18:21:54.491Z,73.44
2023-01-30T18:23:57.149Z,73.07
2023-01-30T18:25:59.741Z,72.59
2023-01-30T18:28:02.991Z,73.11
2023-01-30T18:30:06.335Z,73.81
2023-01-30T18:32:08.946Z,73.90
2023-01-30T18:34:12.353Z,73.39
2023-01-30T18:36:17.356Z,72.81
2023-01-30T18:38:21.254Z,73.92
2023-01-30T18:40:24.707Z,73.25
2023-01-30T18:42:27.313Z,73.29
2023-01-30T18:44:29.869Z,73.58
2023-01-30T18:46:33.605Z,73.26
2023-01-30T18:48:36.959Z,73.19
2023-01-30T18:50:39.542Z,73.66
2023-01-30T18:52:42.096Z,73.35
2023-01-30T18:54:45.971Z,73.10
2023-01-30T18:56:48.555Z,73.13
2023-01-30T18:58:52.315Z,72.06
2023-01-30T19:00:54.909Z,72.66
2023-01-30T19:02:57.522Z,73.19
2023-01-30T19:05:00.129Z,72.75
2023-01-30T19:07:02.727Z,72.93
2023-01-30T19:09:06.349Z,73.29
2023-01-30T19:11:29.413Z,73.44
2023-01-30T19:13:37.312Z,73.09
2023-01-30T19:15:42.363Z,73.29
2023-01-30T19:17:47.858Z,73.01
2023-01-30T19:19:50.403Z,73.12
2023-01-30T19:21:53.318Z,73.49
2023-01-30T19:23:56.363Z,72.85
2023-01-30T19:26:00.893Z,72.96
2023-01-30T19:28:06.486Z,73.41
2023-01-30T19:30:13.083Z,73.45
2023-01-30T19:32:15.647Z,73.26
2023-01-30T19:34:18.672Z,73.28
2023-01-30T19:36:23.305Z,73.75
2023-01-30T19:38:25.932Z,73.80
2023-01-30T19:40:28.563Z,74.95
2023-01-30T19:42:31.130Z,74.86
2023-01-30T19:44:35.043Z,75.61
2023-01-30T19:46:37.709Z,75.36
2023-01-30T19:48:41.235Z,75.33
2023-01-30T19:50:43.767Z,74.21
2023-01-30T19:52:47.267Z,75.41
2023-01-30T19:54:49.783Z,74.25
2023-01-30T19:56:52.375Z,74.60
2023-01-30T19:58:57.122Z,74.42
2023-01-30T20:01:07.370Z,74.34
2023-01-30T20:03:12.748Z,74.63
2023-01-30T20:05:16.006Z,74.40
2023-01-30T20:07:18.556Z,74.11
2023-01-30T20:09:21.140Z,74.07
2023-01-30T20:11:23.789Z,74.29
2023-01-30T20:13:26.416Z,74.64
2023-01-30T20:15:29.225Z,74.81
2023-01-30T20:17:35.016Z,73.81
2023-01-30T20:19:37.668Z,73.88
2023-01-30T20:21:40.225Z,74.15
2023-01-30T20:23:44.769Z,74.25
2023-01-30T20:25:48.642Z,74.70
2023-01-30T20:27:51.199Z,73.47
2023-01-30T20:29:53.753Z,73.64
2023-01-30T20:31:56.401Z,74.43
2023-01-30T20:34:01.939Z,74.00
2023-01-30T20:36:05.977Z,73.80
2023-01-30T20:38:08.672Z,73.86
2023-01-30T20:40:12.474Z,73.73
2023-01-30T20:42:15.847Z,73.75
2023-01-30T20:44:20.453Z,73.70
2023-01-30T20:46:24.615Z,73.71
2023-01-30T20:48:27.234Z,73.46
2023-01-30T20:50:31.131Z,73.70
2023-01-30T20:52:33.717Z,74.02
2023-01-30T20:54:37.205Z,74.58
2023-01-30T20:56:43.660Z,74.31
2023-01-30T20:58:46.811Z,74.32
2023-01-30T21:00:49.399Z,73.73
2023-01-30T21:02:53.041Z,73.62
2023-01-30T21:04:55.566Z,73.52
2023-01-30T21:06:59.471Z,73.78
2023-01-30T21:09:03.759Z,74.17
2023-01-30T21:11:08.705Z,74.07
2023-01-30T21:13:11.292Z,74.61
2023-01-30T21:15:13.945Z,73.66
2023-01-30T21:17:16.536Z,73.85
2023-01-30T21:19:19.274Z,74.32
2023-01-30T21:21:24.922Z,73.49
2023-01-30T21:23:29.473Z,73.69
2023-01-30T21:25:32.303Z,74.18
2023-01-30T21:27:34.879Z,73.10
2023-01-30T21:29:37.891Z,73.17
2023-01-30T21:31:41.520Z,73.77
2023-01-30T21:33:44.710Z,73.15
2023-01-30T21:35:47.290Z,73.87
2023-01-30T21:38:07.259Z,73.78
2023-01-30T21:40:32.898Z,74.29
2023-01-30T21:42:53.660Z,73.25
2023-01-30T21:44:56.204Z,73.63
2023-01-30T21:46:58.808Z,73.48
2023-01-30T21:49:01.345Z,73.62
2023-01-30T21:51:11.786Z,73.42
2023-01-30T21:53:14.357Z,73.86
2023-01-30T21:55:18.668Z,73.38
2023-01-30T21:57:21.507Z,73.08
2023-01-30T21:59:24.035Z,73.54
2023-01-30T22:01:27.010Z,74.10
2023-01-30T22:03:29.643Z,74.13
2023-01-30T22:05:36.551Z,73.76
2023-01-30T22:07:39.897Z,73.85
2023-01-30T22:09:42.445Z,73.07
2023-01-30T22:11:46.378Z,73.89
2023-01-30T22:13:49.226Z,73.88
2023-01-30T22:15:51.776Z,73.84
2023-01-30T22:17:54.420Z,74.24
2023-01-30T22:19:57.010Z,74.86
2023-01-30T22:21:59.548Z,74.67
2023-01-30T22:24:03.521Z,74.92
2023-01-30T22:26:06.707Z,74.36
2023-01-30T22:28:10.592Z,74.94
2023-01-30T22:30:13.761Z,73.63
2023-01-30T22:32:16.299Z,74.39
2023-01-30T22:34:19.046Z,74.55
2023-01-30T22:36:24.015Z,74.76
2023-01-30T22:38:27.452Z,75.24
2023-01-30T22:40:29.988Z,74.70
2023-01-30T22:42:32.566Z,75.35
2023-01-30T22:44:36.406Z,75.36
2023-01-30T22:46:41.279Z,75.18
2023-01-30T22:48:44.405Z,75.79
2023-01-30T22:50:46.972Z,75.40
2023-01-30T22:52:49.498Z,75.65
2023-01-30T22:54:52.078Z,76.01
2023-01-30T22:56:54.696Z,74.84
2023-01-30T22:58:57.865Z,74.55
2023-01-30T23:01:14.785Z,74.87
2023-01-30T23:03:17.330Z,74.42
2023-01-30T23:05:20.309Z,74.47
2023-01-30T23:07:23.080Z,74.02
2023-01-30T23:09:25.600Z,73.85
2023-01-30T23:11:30.983Z,73.81
2023-01-30T23:13:32.643Z,74.98
2023-01-30T23:15:39.073Z,74.42
2023-01-30T23:18:00.843Z,74.22
2023-01-30T23:20:03.366Z,74.48
2023-01-30T23:22:05.894Z,75.00
2023-01-30T23:24:11.296Z,74.79
2023-01-30T23:26:14.207Z,74.42
2023-01-30T23:28:16.872Z,74.14
2023-01-30T23:30:19.402Z,74.68
2023-01-30T23:32:23.509Z,74.03
2023-01-30T23:34:27.426Z,73.80
2023-01-30T23:36:30.795Z,74.60
2023-01-30T23:38:33.227Z,74.84
2023-01-30T23:40:35.826Z,74.77
2023-01-30T23:42:38.827Z,75.24
2023-01-30T23:44:41.426Z,74.45
2023-01-30T23:46:43.991Z,73.98
2023-01-30T23:48:48.161Z,74.62
2023-01-30T23:50:52.098Z,74.34
2023-01-30T23:52:54.662Z,74.19
2023-01-30T23:54:57.211Z,73.63
2023-01-30T23:56:59.805Z,73.58
2023-01-30T23:59:03.185Z,74.49
